South Byron, NY (14557)

12:52 PM EDT on April 25, 2015 (GMT -0400)
Southwoods RV Resort | | Change Station
CLOSE
Current Station
Personal Weather Station
Location: Byron, NY
Elevation: 705 ft
Nearby Weather Stations

Elev 705 ft 43.08 °N, 78.03 °W | Updated 4 seconds ago

Clear
Clear
45.5 °F
Feels Like 42 °F
N
5.8
Wind Variable Wind from SW
Gusts 7.4 mph

Today
High -- | Low -- °F
--% Chance of Precip.
Yesterday
High -- | Low -- °F
Precip. -- in
6:15 AM 8:06 PM
Waxing Crescent, 47% visible
Pressure 29.95 in
Visibility 10.0 miles
Clouds Few 4000 ft
Few 25000 ft
Windchill 42 °F
Dew Point 28 °F
Humidity 50%
Rainfall 0.00 in
Snow Depth Not available.
UV 6.0 out of 12
Pollen 8.40 out of 12
Air Quality Not available.
Flu Activity Widespread
METAR KROC 251554Z VRB05KT 10SM FEW040 FEW250 08/M04 A2993 RMK AO2 SLP141 T00781039

More Conditions Fewer Conditions

Pressure 29.95 in
Visibility 10.0 miles
Clouds Few 4000 ft
Few 25000 ft
Windchill 42 °F
Dew Point 28 °F
Humidity 50%
Rainfall 0.00 in
Snow Depth Not available.
UV 6.0 out of 12
Pollen 8.40 out of 12
Air Quality Not available.
Flu Activity Widespread
METAR KROC 251554Z VRB05KT 10SM FEW040 FEW250 08/M04 A2993 RMK AO2 SLP141 T00781039

More Conditions Fewer Conditions

10-Day Weather Forecast

Almanac

Astronomy

Apr. 25, 2015 Rise Set
Actual Time
Civil Twilight
Nautical Twilight
Astronomical Twilight
Moon
Length of Visible Light
Length of Day
Tomorrow will be .
, % of the Moon is Illuminated

Today's Extremes

State Highs State Lows

Community

WunderPhotos

Upload Photos

1,816,737 photos uploaded!

WunderBlogs® & News

Nearby

Air Quality

  Air Quality AQ Index Pollutant
Not available.

Snow Depth

Station Depth Elevation

Earthquake Activity

City Distance Mag. Time & Date
Minimum magnitude displayed is 2.5.

Coastal Water Temperatures

Place Temperature

Stations

Nearby Weather Stations

Station Location Temp. Windchill Dew Point Humidity Wind Precip. Elev Updated Type